createdAt,value
2023-01-19T00:00:23.011Z,-1.40
2023-01-19T00:02:25.121Z,-1.40
2023-01-19T00:04:26.888Z,-1.40
2023-01-19T00:06:28.794Z,-1.30
2023-01-19T00:08:30.552Z,-1.30
2023-01-19T00:10:32.259Z,-1.30
2023-01-19T00:12:34.194Z,-1.40
2023-01-19T00:14:35.959Z,-1.40
2023-01-19T00:16:37.688Z,-1.30
2023-01-19T00:18:39.377Z,-1.30
2023-01-19T00:20:41.331Z,-1.20
2023-01-19T00:22:43.052Z,-1.30
2023-01-19T00:24:45.220Z,-1.50
2023-01-19T00:26:47.246Z,-1.40
2023-01-19T00:28:50.272Z,-1.30
2023-01-19T00:30:52.279Z,-1.30
2023-01-19T00:32:53.974Z,-1.30
2023-01-19T00:34:55.702Z,-1.40
2023-01-19T00:36:57.371Z,-1.40
2023-01-19T00:38:59.151Z,-1.40
2023-01-19T00:41:00.788Z,-1.40
2023-01-19T00:43:03.239Z,-1.50
2023-01-19T00:45:06.591Z,-1.30
2023-01-19T00:47:11.111Z,-1.10
2023-01-19T00:49:14.574Z,-1.20
2023-01-19T00:51:16.236Z,-1.20
2023-01-19T00:53:18.087Z,-1.20
2023-01-19T00:55:20.268Z,-1.00
2023-01-19T00:57:22.342Z,-1.10
2023-01-19T00:59:25.730Z,-1.10
2023-01-19T01:01:45.283Z,-1.10
2023-01-19T01:03:47.910Z,-1.10
2023-01-19T01:05:49.686Z,-1.20
2023-01-19T01:07:51.655Z,-1.30
2023-01-19T01:09:56.797Z,-1.30
2023-01-19T01:11:58.655Z,-1.40
2023-01-19T01:14:01.704Z,-1.20
2023-01-19T01:16:03.686Z,-1.20
2023-01-19T01:18:05.457Z,-1.20
2023-01-19T01:20:07.868Z,-1.30
2023-01-19T01:22:12.455Z,-1.30
2023-01-19T01:24:14.206Z,-1.30
2023-01-19T01:26:15.971Z,-1.40
2023-01-19T01:28:17.845Z,-1.40
2023-01-19T01:30:19.932Z,-1.30
2023-01-19T01:32:21.710Z,-1.40
2023-01-19T01:34:23.554Z,-1.50
2023-01-19T01:36:30.157Z,-1.60
2023-01-19T01:38:32.037Z,-1.70
2023-01-19T01:40:33.807Z,-1.70
2023-01-19T01:42:35.550Z,-1.80
2023-01-19T01:44:52.115Z,-1.80
2023-01-19T01:46:53.951Z,-1.80
2023-01-19T01:49:13.457Z,-1.80
2023-01-19T01:51:34.293Z,-1.80
2023-01-19T01:53:37.515Z,-1.80
2023-01-19T01:55:46.893Z,-1.80
2023-01-19T01:57:57.452Z,-1.80
2023-01-19T01:59:59.301Z,-1.50
2023-01-19T02:02:24.944Z,-1.40
2023-01-19T02:04:26.713Z,-1.40
2023-01-19T02:06:28.654Z,-1.30
2023-01-19T02:08:48.884Z,-1.30
2023-01-19T02:11:10.383Z,-1.30
2023-01-19T02:13:20.545Z,-1.30
2023-01-19T02:15:22.386Z,-1.40
2023-01-19T02:17:24.105Z,-1.40
2023-01-19T02:19:34.305Z,-1.50
2023-01-19T02:21:38.361Z,-1.50
2023-01-19T02:23:44.956Z,-1.40
2023-01-19T02:25:48.105Z,-1.30
2023-01-19T02:27:50.733Z,-1.40
2023-01-19T02:29:53.488Z,-1.40
2023-01-19T02:31:57.296Z,-1.50
2023-01-19T02:34:00.567Z,-1.40
2023-01-19T02:36:03.067Z,-1.50
2023-01-19T02:38:04.887Z,-1.50
2023-01-19T02:40:14.553Z,-1.60
2023-01-19T02:42:21.476Z,-1.70
2023-01-19T02:44:24.265Z,-1.70
2023-01-19T02:46:26.156Z,-1.70
2023-01-19T02:48:27.907Z,-1.80
2023-01-19T02:50:47.492Z,-1.60
2023-01-19T02:52:51.647Z,-1.50
2023-01-19T02:55:13.263Z,-1.50
2023-01-19T02:57:31.835Z,-1.70
2023-01-19T03:00:01.007Z,-1.80
2023-01-19T03:02:12.969Z,-1.80
2023-01-19T03:04:31.497Z,-2.00
2023-01-19T03:06:44.786Z,-2.00
2023-01-19T03:08:52.607Z,-2.00
2023-01-19T03:11:14.659Z,-2.10
2023-01-19T03:13:31.123Z,-2.00
2023-01-19T03:15:58.016Z,-2.00
2023-01-19T03:18:01.642Z,-2.10
2023-01-19T03:20:05.826Z,-2.20
2023-01-19T03:22:13.382Z,-2.30
2023-01-19T03:24:17.330Z,-2.30
2023-01-19T03:26:24.312Z,-2.30
2023-01-19T03:28:28.309Z,-2.30
2023-01-19T03:30:34.767Z,-2.30
2023-01-19T03:32:52.019Z,-2.30
2023-01-19T03:34:55.232Z,-2.30
2023-01-19T03:37:03.881Z,-2.40
2023-01-19T03:39:09.149Z,-2.30
2023-01-19T03:41:16.689Z,-2.40
2023-01-19T03:43:19.519Z,-2.30
2023-01-19T03:45:22.678Z,-2.40
2023-01-19T03:47:26.071Z,-2.40
2023-01-19T03:49:31.528Z,-2.40
2023-01-19T03:51:37.466Z,-2.40
2023-01-19T03:53:39.265Z,-2.40
2023-01-19T03:55:44.656Z,-2.40
2023-01-19T03:57:46.373Z,-2.30
2023-01-19T03:59:48.180Z,-2.30
2023-01-19T04:01:49.939Z,-2.40
2023-01-19T04:03:52.656Z,-2.50
2023-01-19T04:05:56.828Z,-2.40
2023-01-19T04:07:58.829Z,-2.40
2023-01-19T04:10:00.539Z,-2.40
2023-01-19T04:12:02.296Z,-2.40
2023-01-19T04:14:04.483Z,-2.50
2023-01-19T04:16:06.747Z,-2.40
2023-01-19T04:18:09.022Z,-2.50
2023-01-19T04:20:11.027Z,-2.50
2023-01-19T04:22:12.861Z,-2.50
2023-01-19T04:24:14.669Z,-2.50
2023-01-19T04:26:16.351Z,-2.50
2023-01-19T04:28:18.169Z,-2.50
2023-01-19T04:30:20.062Z,-2.60
2023-01-19T04:32:21.813Z,-2.50
2023-01-19T04:34:23.551Z,-2.60
2023-01-19T04:36:25.262Z,-2.60
2023-01-19T04:38:27.138Z,-2.60
2023-01-19T04:40:28.805Z,-2.50
2023-01-19T04:42:30.488Z,-2.50
2023-01-19T04:44:32.515Z,-2.40
2023-01-19T04:46:34.930Z,-2.20
2023-01-19T04:48:36.641Z,-2.40
2023-01-19T04:50:38.463Z,-2.40
2023-01-19T04:52:40.177Z,-2.40
2023-01-19T04:54:41.900Z,-2.40
2023-01-19T04:56:43.690Z,-2.30
2023-01-19T04:58:45.488Z,-2.30
2023-01-19T05:00:47.614Z,-2.30
2023-01-19T05:02:49.535Z,-2.20
2023-01-19T05:04:51.897Z,-2.10
2023-01-19T05:06:54.302Z,-2.10
2023-01-19T05:08:55.978Z,-2.10
2023-01-19T05:10:57.950Z,-2.10
2023-01-19T05:13:00.027Z,-2.10
2023-01-19T05:15:02.247Z,-2.10
2023-01-19T05:17:03.925Z,-2.10
2023-01-19T05:19:05.690Z,-2.10
2023-01-19T05:21:07.696Z,-2.00
2023-01-19T05:23:09.461Z,-2.00
2023-01-19T05:25:11.240Z,-1.90
2023-01-19T05:27:13.006Z,-1.80
2023-01-19T05:29:14.775Z,-1.90
2023-01-19T05:31:18.554Z,-1.70
2023-01-19T05:33:22.010Z,-1.70
2023-01-19T05:35:35.354Z,-1.80
2023-01-19T05:37:37.668Z,-1.70
2023-01-19T05:39:39.353Z,-1.50
2023-01-19T05:41:42.056Z,-1.50
2023-01-19T05:43:44.008Z,-1.50
2023-01-19T05:45:45.730Z,-1.70
2023-01-19T05:47:47.389Z,-1.70
2023-01-19T05:49:49.105Z,-1.70
2023-01-19T05:51:50.803Z,-1.80
2023-01-19T05:53:52.496Z,-1.70
2023-01-19T05:55:59.244Z,-1.70
2023-01-19T05:58:01.349Z,-1.80
2023-01-19T06:00:05.155Z,-1.70
2023-01-19T06:02:06.932Z,-1.60
2023-01-19T06:04:08.687Z,-1.70
2023-01-19T06:06:10.622Z,-1.70
2023-01-19T06:08:12.338Z,-1.80
2023-01-19T06:10:14.088Z,-1.80
2023-01-19T06:12:15.865Z,-1.90
2023-01-19T06:14:17.609Z,-1.90
2023-01-19T06:16:19.458Z,-2.00
2023-01-19T06:18:21.280Z,-2.00
2023-01-19T06:20:23.009Z,-2.10
2023-01-19T06:22:24.793Z,-2.20
2023-01-19T06:24:27.825Z,-2.20
2023-01-19T06:26:29.763Z,-2.10
2023-01-19T06:28:31.570Z,-2.00
2023-01-19T06:30:33.393Z,-2.10
2023-01-19T06:32:35.153Z,-2.20
2023-01-19T06:34:36.950Z,-2.10
2023-01-19T06:36:38.855Z,-2.10
2023-01-19T06:38:40.629Z,-1.90
2023-01-19T06:40:42.813Z,-1.90
2023-01-19T06:42:44.584Z,-2.00
2023-01-19T06:44:48.050Z,-2.00
2023-01-19T06:46:50.006Z,-2.10
2023-01-19T06:48:51.898Z,-2.10
2023-01-19T06:50:53.707Z,-1.80
2023-01-19T06:52:55.387Z,-1.80
2023-01-19T06:54:57.127Z,-1.70
2023-01-19T06:56:58.857Z,-1.70
2023-01-19T06:59:00.652Z,-1.70
2023-01-19T07:01:06.400Z,-1.70
2023-01-19T07:03:08.708Z,-1.60
2023-01-19T07:05:14.673Z,-1.40
2023-01-19T07:07:16.690Z,-1.50
2023-01-19T07:09:20.364Z,-1.40
2023-01-19T07:11:31.284Z,-1.30
2023-01-19T07:13:35.517Z,-1.30
2023-01-19T07:15:37.791Z,-1.30
2023-01-19T07:17:39.614Z,-1.40
2023-01-19T07:19:41.425Z,-1.30
2023-01-19T07:21:43.167Z,-1.20
2023-01-19T07:23:47.743Z,-1.20
2023-01-19T07:25:49.456Z,-1.20
2023-01-19T07:27:51.192Z,-1.20
2023-01-19T07:29:52.986Z,-1.20
2023-01-19T07:31:54.970Z,-1.20
2023-01-19T07:33:56.799Z,-1.20
2023-01-19T07:35:58.723Z,-1.20
2023-01-19T07:38:00.474Z,-1.10
2023-01-19T07:40:02.225Z,-0.90
2023-01-19T07:42:04.415Z,-0.90
2023-01-19T07:44:06.104Z,-1.10
2023-01-19T07:46:08.375Z,-1.10
2023-01-19T07:48:10.255Z,-1.10
2023-01-19T07:50:13.809Z,-1.20
2023-01-19T07:52:15.499Z,-1.10
2023-01-19T07:54:17.271Z,-1.10
2023-01-19T07:56:19.134Z,-0.90
2023-01-19T07:58:20.854Z,-1.00
2023-01-19T08:00:24.701Z,-1.00
2023-01-19T08:02:26.470Z,-0.90
2023-01-19T08:04:28.767Z,-0.90
2023-01-19T08:06:35.056Z,-0.90
2023-01-19T08:08:36.833Z,-0.90
2023-01-19T08:10:38.698Z,-0.90
2023-01-19T08:12:41.938Z,-1.00
2023-01-19T08:14:43.752Z,-1.00
2023-01-19T08:16:45.539Z,-0.90
2023-01-19T08:18:47.372Z,-0.90
2023-01-19T08:20:49.209Z,-0.90
2023-01-19T08:22:51.580Z,-0.90
2023-01-19T08:24:54.913Z,-0.90
2023-01-19T08:27:01.296Z,-1.00
2023-01-19T08:29:05.826Z,-0.90
2023-01-19T08:31:19.512Z,-0.90
2023-01-19T08:33:23.945Z,-0.90
2023-01-19T08:35:25.766Z,-0.80
2023-01-19T08:37:27.570Z,-0.70
2023-01-19T08:39:29.354Z,-0.60
2023-01-19T08:41:31.156Z,-0.40
2023-01-19T08:43:34.674Z,-0.30
2023-01-19T08:45:41.395Z,-0.40
2023-01-19T08:47:43.238Z,-0.40
2023-01-19T08:49:44.952Z,-0.40
2023-01-19T08:51:50.004Z,-0.40
2023-01-19T08:53:51.717Z,-0.30
2023-01-19T08:55:57.493Z,-0.40
2023-01-19T08:58:00.181Z,-0.20
2023-01-19T09:00:02.558Z,-0.20
2023-01-19T09:02:04.490Z,-0.40
2023-01-19T09:04:06.350Z,-0.40
2023-01-19T09:06:09.540Z,-0.30
2023-01-19T09:08:13.764Z,-0.40
2023-01-19T09:10:17.190Z,-0.20
2023-01-19T09:12:18.930Z,0.10
2023-01-19T09:14:20.879Z,0.20
2023-01-19T09:16:22.809Z,0.20
2023-01-19T09:18:24.688Z,0.40
2023-01-19T09:20:26.500Z,0.70
2023-01-19T09:22:29.371Z,0.90
2023-01-19T09:24:31.096Z,1.00
2023-01-19T09:26:33.299Z,1.10
2023-01-19T09:28:35.234Z,1.30
2023-01-19T09:30:39.298Z,1.40
2023-01-19T09:33:16.104Z,1.30
2023-01-19T09:35:17.880Z,1.20
2023-01-19T09:37:19.850Z,1.20
2023-01-19T09:39:21.600Z,1.00
2023-01-19T09:41:26.130Z,0.90
2023-01-19T09:43:27.841Z,1.00
2023-01-19T09:45:42.800Z,1.10
2023-01-19T09:47:45.757Z,1.00
2023-01-19T09:50:18.095Z,1.00
2023-01-19T09:52:20.672Z,1.00
2023-01-19T09:54:41.226Z,1.10
2023-01-19T09:56:44.314Z,1.10
2023-01-19T09:58:47.555Z,1.10
2023-01-19T10:01:02.579Z,1.20
2023-01-19T10:03:16.681Z,1.20
2023-01-19T10:05:30.949Z,1.30
2023-01-19T10:07:58.317Z,1.30
2023-01-19T10:10:17.335Z,1.40
2023-01-19T10:12:30.078Z,1.40
2023-01-19T10:14:39.023Z,1.40
2023-01-19T10:16:53.168Z,1.30
2023-01-19T10:19:00.706Z,1.60
2023-01-19T10:21:10.494Z,1.70
2023-01-19T10:23:43.814Z,1.70
2023-01-19T10:25:46.082Z,1.80
2023-01-19T10:27:48.037Z,1.90
2023-01-19T10:29:50.005Z,1.70
2023-01-19T10:31:58.120Z,1.60
2023-01-19T10:33:59.995Z,1.60
2023-01-19T10:36:15.310Z,1.80
2023-01-19T10:38:22.183Z,1.90
2023-01-19T10:41:05.225Z,1.90
2023-01-19T10:43:34.202Z,2.00
2023-01-19T10:45:36.932Z,2.00
2023-01-19T10:47:40.911Z,1.90
2023-01-19T10:49:43.513Z,1.90
2023-01-19T10:51:50.798Z,2.00
2023-01-19T10:54:04.179Z,2.10
2023-01-19T10:56:23.829Z,2.00
2023-01-19T10:58:29.001Z,2.10
2023-01-19T11:00:40.056Z,2.20
2023-01-19T11:02:50.531Z,2.10
2023-01-19T11:04:57.435Z,2.20
2023-01-19T11:07:17.915Z,2.20
2023-01-19T11:09:21.123Z,2.30
2023-01-19T11:11:24.631Z,2.20
2023-01-19T11:13:26.533Z,2.20
2023-01-19T11:15:33.033Z,2.20
2023-01-19T11:17:34.876Z,2.00
2023-01-19T11:19:36.641Z,1.90
2023-01-19T11:21:38.503Z,1.90
2023-01-19T11:23:51.123Z,2.00
2023-01-19T11:25:54.776Z,2.00
2023-01-19T11:27:56.907Z,2.00
2023-01-19T11:29:58.640Z,1.90
2023-01-19T11:32:12.115Z,1.90
2023-01-19T11:34:25.386Z,1.80
2023-01-19T11:36:33.465Z,1.70
2023-01-19T11:38:43.459Z,1.80
2023-01-19T11:40:57.270Z,1.90
2023-01-19T11:42:59.427Z,2.00
2023-01-19T11:46:01.295Z,1.90
2023-01-19T11:48:06.040Z,1.90
2023-01-19T11:50:15.843Z,2.10
2023-01-19T11:52:43.165Z,2.10
2023-01-19T11:55:18.532Z,2.20
2023-01-19T11:57:20.789Z,2.30
2023-01-19T11:59:24.997Z,2.30
2023-01-19T12:01:34.194Z,2.40
2023-01-19T12:03:47.806Z,2.30
2023-01-19T12:05:53.116Z,2.20
2023-01-19T12:07:55.280Z,2.40
2023-01-19T12:10:21.379Z,2.50
2023-01-19T12:12:35.310Z,2.60
2023-01-19T12:14:54.928Z,2.60
2023-01-19T12:17:00.476Z,2.60
2023-01-19T12:19:10.828Z,2.60
2023-01-19T12:21:12.561Z,2.60
2023-01-19T12:23:29.273Z,2.60
2023-01-19T12:26:03.098Z,2.60
2023-01-19T12:28:09.838Z,2.60
2023-01-19T12:30:25.047Z,2.60
2023-01-19T12:32:36.757Z,2.50
2023-01-19T12:34:41.614Z,2.40
2023-01-19T12:36:43.954Z,2.40
2023-01-19T12:39:01.807Z,2.40
2023-01-19T12:41:28.658Z,2.20
2023-01-19T12:43:30.475Z,2.10
2023-01-19T12:45:36.500Z,2.30
2023-01-19T12:47:38.395Z,2.20
2023-01-19T12:49:46.503Z,2.20
2023-01-19T12:51:51.174Z,2.30
2023-01-19T12:53:59.532Z,2.20
2023-01-19T12:56:10.050Z,2.20
2023-01-19T12:58:18.727Z,2.10
2023-01-19T13:00:23.553Z,2.10
2023-01-19T13:02:26.623Z,2.10
2023-01-19T13:04:33.409Z,2.10
2023-01-19T13:06:47.326Z,2.00
2023-01-19T13:09:00.312Z,2.10
2023-01-19T13:11:02.193Z,2.20
2023-01-19T13:13:20.147Z,2.10
2023-01-19T13:15:36.117Z,2.10
2023-01-19T13:17:50.921Z,2.00
2023-01-19T13:20:03.129Z,2.10
2023-01-19T13:22:42.823Z,2.00
2023-01-19T13:25:13.814Z,2.00
2023-01-19T13:27:15.597Z,2.00
2023-01-19T13:29:20.145Z,2.10
2023-01-19T13:31:23.928Z,2.10
2023-01-19T13:33:31.084Z,2.10
2023-01-19T13:35:32.938Z,2.10
2023-01-19T13:37:41.691Z,2.10
2023-01-19T13:39:45.654Z,2.10
2023-01-19T13:41:49.171Z,2.10
2023-01-19T13:44:14.873Z,2.00
2023-01-19T13:46:19.380Z,2.00
2023-01-19T13:48:22.959Z,1.90
2023-01-19T13:50:28.424Z,2.10
2023-01-19T13:52:30.649Z,2.30
2023-01-19T13:54:32.715Z,2.30
2023-01-19T13:56:34.453Z,2.30
2023-01-19T13:58:36.199Z,2.20
2023-01-19T14:00:38.532Z,2.10
2023-01-19T14:02:59.617Z,2.00
2023-01-19T14:05:34.604Z,2.00
2023-01-19T14:07:36.772Z,2.00
2023-01-19T14:09:39.801Z,2.00
2023-01-19T14:11:41.493Z,1.90
2023-01-19T14:13:44.881Z,1.90
2023-01-19T14:15:48.682Z,1.90
2023-01-19T14:18:12.199Z,1.90
2023-01-19T14:20:30.607Z,1.80
2023-01-19T14:22:42.341Z,1.80
2023-01-19T14:24:44.231Z,1.80
2023-01-19T14:26:54.638Z,1.80
2023-01-19T14:28:56.363Z,1.80
2023-01-19T14:31:20.846Z,1.80
2023-01-19T14:33:35.612Z,1.70
2023-01-19T14:35:37.430Z,1.70
2023-01-19T14:37:50.191Z,1.70
2023-01-19T14:40:04.762Z,1.70
2023-01-19T14:42:07.123Z,1.70
2023-01-19T14:44:26.225Z,1.60
2023-01-19T14:46:28.528Z,1.60
2023-01-19T14:48:31.338Z,1.60
2023-01-19T14:50:37.638Z,1.60
2023-01-19T14:52:41.701Z,1.60
2023-01-19T14:54:46.272Z,1.50
2023-01-19T14:56:50.322Z,1.50
2023-01-19T14:58:52.113Z,1.50
2023-01-19T15:00:57.036Z,1.50
2023-01-19T15:02:58.965Z,1.50
2023-01-19T15:05:01.317Z,1.50
2023-01-19T15:07:03.197Z,1.60
2023-01-19T15:09:04.988Z,1.50
2023-01-19T15:11:11.636Z,1.50
2023-01-19T15:13:19.890Z,1.50
2023-01-19T15:15:30.115Z,1.60
2023-01-19T15:17:32.177Z,1.50
2023-01-19T15:19:33.977Z,1.50
2023-01-19T15:21:35.780Z,1.60
2023-01-19T15:23:37.619Z,1.50
2023-01-19T15:25:39.794Z,1.50
2023-01-19T15:27:42.260Z,1.50
2023-01-19T15:29:44.138Z,1.50
2023-01-19T15:31:46.061Z,1.50
2023-01-19T15:33:48.037Z,1.40
2023-01-19T15:35:50.204Z,1.40
2023-01-19T15:37:52.036Z,1.40
2023-01-19T15:39:53.842Z,1.40
2023-01-19T15:41:55.680Z,1.40
2023-01-19T15:43:57.867Z,1.40
2023-01-19T15:46:01.859Z,1.30
2023-01-19T15:48:09.423Z,1.30
2023-01-19T15:50:11.539Z,1.30
2023-01-19T15:52:13.304Z,1.30
2023-01-19T15:54:19.666Z,1.30
2023-01-19T15:56:24.679Z,1.30
2023-01-19T15:58:26.623Z,1.30
2023-01-19T16:00:30.405Z,1.30
2023-01-19T16:02:34.394Z,1.30
2023-01-19T16:04:36.151Z,1.20
2023-01-19T16:06:38.353Z,1.20
2023-01-19T16:08:40.533Z,1.20
2023-01-19T16:10:42.500Z,1.20
2023-01-19T16:12:50.325Z,1.20
2023-01-19T16:14:52.129Z,1.30
2023-01-19T16:16:53.900Z,1.20
2023-01-19T16:18:57.648Z,1.20
2023-01-19T16:20:59.490Z,1.20
2023-01-19T16:23:16.537Z,1.20
2023-01-19T16:25:18.323Z,1.20
2023-01-19T16:27:20.158Z,1.20
2023-01-19T16:29:21.898Z,1.20
2023-01-19T16:31:24.049Z,1.20
2023-01-19T16:33:25.884Z,1.10
2023-01-19T16:35:27.625Z,1.10
2023-01-19T16:37:29.463Z,1.10
2023-01-19T16:39:31.252Z,1.10
2023-01-19T16:41:34.278Z,1.10
2023-01-19T16:43:35.962Z,1.10
2023-01-19T16:46:00.426Z,1.10
2023-01-19T16:48:02.189Z,1.10
2023-01-19T16:50:05.167Z,1.10
2023-01-19T16:52:07.289Z,1.00
2023-01-19T16:54:13.818Z,1.00
2023-01-19T16:56:15.664Z,1.10
2023-01-19T16:58:17.379Z,1.00
2023-01-19T17:00:19.593Z,1.10
2023-01-19T17:02:21.400Z,1.10
2023-01-19T17:04:23.536Z,1.10
2023-01-19T17:06:25.672Z,1.20
2023-01-19T17:08:27.457Z,1.30
2023-01-19T17:10:29.268Z,1.30
2023-01-19T17:12:32.302Z,1.20
2023-01-19T17:14:34.197Z,1.20
2023-01-19T17:16:36.416Z,1.10
2023-01-19T17:18:38.493Z,1.10
2023-01-19T17:20:40.441Z,1.10
2023-01-19T17:22:42.253Z,1.00
2023-01-19T17:24:44.574Z,1.00
2023-01-19T17:26:48.576Z,1.00
2023-01-19T17:28:50.499Z,0.90
2023-01-19T17:30:52.718Z,1.00
2023-01-19T17:32:54.516Z,1.00
2023-01-19T17:34:56.289Z,1.00
2023-01-19T17:37:02.916Z,1.00
2023-01-19T17:39:07.732Z,1.00
2023-01-19T17:41:26.142Z,0.90
2023-01-19T17:43:28.035Z,0.90
2023-01-19T17:45:29.899Z,0.90
2023-01-19T17:47:31.659Z,0.90
2023-01-19T17:49:33.336Z,0.90
2023-01-19T17:51:35.626Z,0.90
2023-01-19T17:53:39.133Z,0.90
2023-01-19T17:55:40.904Z,0.80
2023-01-19T17:57:42.573Z,0.70
2023-01-19T17:59:47.818Z,0.70
2023-01-19T18:01:49.630Z,0.70
2023-01-19T18:03:52.806Z,0.70
2023-01-19T18:05:58.563Z,0.60
2023-01-19T18:08:00.491Z,0.60
2023-01-19T18:10:03.606Z,0.60
2023-01-19T18:12:08.286Z,0.60
2023-01-19T18:14:12.436Z,0.60
2023-01-19T18:16:35.044Z,0.60
2023-01-19T18:18:38.145Z,0.60
2023-01-19T18:20:42.537Z,0.60
2023-01-19T18:22:44.368Z,0.60
2023-01-19T18:24:47.060Z,0.60
2023-01-19T18:26:48.845Z,0.60
2023-01-19T18:28:54.581Z,0.70
2023-01-19T18:30:56.693Z,0.60
2023-01-19T18:32:58.516Z,0.60
2023-01-19T18:35:02.544Z,0.60
2023-01-19T18:37:04.626Z,0.60
2023-01-19T18:39:06.409Z,0.60
2023-01-19T18:41:11.509Z,0.60
2023-01-19T18:43:13.364Z,0.70
2023-01-19T18:45:15.306Z,0.70
2023-01-19T18:47:16.981Z,0.70
2023-01-19T18:49:18.763Z,0.70
2023-01-19T18:51:20.501Z,0.60
2023-01-19T18:53:23.224Z,0.60
2023-01-19T18:55:25.103Z,0.70
2023-01-19T18:57:27.003Z,0.70
2023-01-19T18:59:28.841Z,0.70
2023-01-19T19:01:33.630Z,0.70
2023-01-19T19:03:35.766Z,0.70
2023-01-19T19:05:37.902Z,0.70
2023-01-19T19:07:42.417Z,0.70
2023-01-19T19:09:44.149Z,0.70
2023-01-19T19:11:45.991Z,0.70
2023-01-19T19:13:53.060Z,0.70
2023-01-19T19:16:01.773Z,0.70
2023-01-19T19:18:03.760Z,0.70
2023-01-19T19:20:05.897Z,0.70
2023-01-19T19:22:07.853Z,0.70
2023-01-19T19:24:12.190Z,0.60
2023-01-19T19:26:14.057Z,0.70
2023-01-19T19:28:15.749Z,0.70
2023-01-19T19:30:18.107Z,0.70
2023-01-19T19:32:20.980Z,0.70
2023-01-19T19:34:24.670Z,0.70
2023-01-19T19:36:28.218Z,0.70
2023-01-19T19:38:30.138Z,0.70
2023-01-19T19:40:31.950Z,0.70
2023-01-19T19:42:36.561Z,0.70
2023-01-19T19:44:38.454Z,0.80
2023-01-19T19:46:41.430Z,0.80
2023-01-19T19:48:43.289Z,0.80
2023-01-19T19:50:45.025Z,0.80
2023-01-19T19:52:46.794Z,0.80
2023-01-19T19:54:48.879Z,0.90
2023-01-19T19:56:52.071Z,0.90
2023-01-19T19:58:55.310Z,0.90
2023-01-19T20:00:57.938Z,0.90
2023-01-19T20:02:59.741Z,0.90
2023-01-19T20:05:01.556Z,0.90
2023-01-19T20:07:03.338Z,0.80
2023-01-19T20:09:07.007Z,0.80
2023-01-19T20:11:14.520Z,0.80
2023-01-19T20:13:19.151Z,0.90
2023-01-19T20:15:20.948Z,0.90
2023-01-19T20:17:23.230Z,0.90
2023-01-19T20:19:25.124Z,0.90
2023-01-19T20:21:29.267Z,0.90
2023-01-19T20:23:31.068Z,0.80
2023-01-19T20:25:32.903Z,0.80
2023-01-19T20:27:35.240Z,0.80
2023-01-19T20:29:36.973Z,0.80
2023-01-19T20:31:42.741Z,0.80
2023-01-19T20:33:44.993Z,0.80
2023-01-19T20:35:46.842Z,0.80
2023-01-19T20:37:48.746Z,0.80
2023-01-19T20:39:50.535Z,0.80
2023-01-19T20:41:52.772Z,0.70
2023-01-19T20:43:54.629Z,0.70
2023-01-19T20:45:56.795Z,0.70
2023-01-19T20:47:58.645Z,0.70
2023-01-19T20:50:15.545Z,0.70
2023-01-19T20:52:17.320Z,0.70
2023-01-19T20:54:21.010Z,0.70
2023-01-19T20:56:22.841Z,0.70
2023-01-19T20:58:24.871Z,0.70
2023-01-19T21:00:26.829Z,0.70
2023-01-19T21:02:28.959Z,0.70
2023-01-19T21:04:30.767Z,0.70
2023-01-19T21:06:32.848Z,0.70
2023-01-19T21:08:34.956Z,0.70
2023-01-19T21:10:36.770Z,0.70
2023-01-19T21:12:38.468Z,0.70
2023-01-19T21:14:42.329Z,0.70
2023-01-19T21:16:44.193Z,0.70
2023-01-19T21:18:45.948Z,0.70
2023-01-19T21:20:49.111Z,0.70
2023-01-19T21:22:51.926Z,0.70
2023-01-19T21:24:53.703Z,0.70
2023-01-19T21:26:55.398Z,0.70
2023-01-19T21:28:58.275Z,0.70
2023-01-19T21:31:09.751Z,0.70
2023-01-19T21:33:11.618Z,0.70
2023-01-19T21:35:13.617Z,0.60
2023-01-19T21:37:15.752Z,0.60
2023-01-19T21:39:17.605Z,0.60
2023-01-19T21:41:19.919Z,0.60
2023-01-19T21:43:22.408Z,0.50
2023-01-19T21:45:24.199Z,0.50
2023-01-19T21:47:25.988Z,0.50
2023-01-19T21:49:27.741Z,0.40
2023-01-19T21:51:33.461Z,0.40
2023-01-19T21:53:35.725Z,0.30
2023-01-19T21:55:38.304Z,0.40
2023-01-19T21:57:40.109Z,0.50
2023-01-19T21:59:41.933Z,0.40
2023-01-19T22:01:45.613Z,0.40
2023-01-19T22:03:47.487Z,0.30
2023-01-19T22:05:49.324Z,0.40
2023-01-19T22:07:51.595Z,0.40
2023-01-19T22:09:53.397Z,0.30
2023-01-19T22:11:55.078Z,0.30
2023-01-19T22:13:59.532Z,0.30
2023-01-19T22:16:02.844Z,0.20
2023-01-19T22:18:04.870Z,0.10
2023-01-19T22:20:07.414Z,0.10
2023-01-19T22:22:09.076Z,0.00
2023-01-19T22:24:10.947Z,0.00
2023-01-19T22:26:12.918Z,0.00
2023-01-19T22:28:14.655Z,0.00
2023-01-19T22:30:16.847Z,0.00
2023-01-19T22:32:18.544Z,0.10
2023-01-19T22:34:20.321Z,0.00
2023-01-19T22:36:35.659Z,0.10
2023-01-19T22:38:39.835Z,0.10
2023-01-19T22:40:41.730Z,0.10
2023-01-19T22:42:50.114Z,0.10
2023-01-19T22:44:51.858Z,0.20
2023-01-19T22:46:55.532Z,0.10
2023-01-19T22:48:58.480Z,0.20
2023-01-19T22:51:00.157Z,0.20
2023-01-19T22:53:01.897Z,0.20
2023-01-19T22:55:04.027Z,0.20
2023-01-19T22:57:06.975Z,0.10
2023-01-19T22:59:09.525Z,0.10
2023-01-19T23:01:17.145Z,0.20
2023-01-19T23:03:18.907Z,0.20
2023-01-19T23:05:20.690Z,0.20
2023-01-19T23:07:24.038Z,0.20
2023-01-19T23:09:25.823Z,0.20
2023-01-19T23:11:34.230Z,0.20
2023-01-19T23:13:37.295Z,0.20
2023-01-19T23:15:39.121Z,0.20
2023-01-19T23:17:43.428Z,0.20
2023-01-19T23:19:45.148Z,0.20
2023-01-19T23:21:50.051Z,0.30
2023-01-19T23:23:59.410Z,0.30
2023-01-19T23:26:09.133Z,0.30
2023-01-19T23:28:10.876Z,0.30
2023-01-19T23:30:12.917Z,0.20
2023-01-19T23:32:14.599Z,0.30
2023-01-19T23:34:16.459Z,0.30
2023-01-19T23:36:19.557Z,0.30
2023-01-19T23:38:22.592Z,0.30
2023-01-19T23:40:24.458Z,0.30
2023-01-19T23:42:26.188Z,0.30
2023-01-19T23:44:28.051Z,0.30
2023-01-19T23:46:29.991Z,0.30
2023-01-19T23:48:32.977Z,0.30
2023-01-19T23:50:34.837Z,0.20
2023-01-19T23:52:36.532Z,0.20
2023-01-19T23:54:38.254Z,0.20
2023-01-19T23:56:40.455Z,0.20
2023-01-19T23:58:42.256Z,0.20
